createdAt,value
2019-02-19T00:01:45.409Z,5.10
2019-02-19T00:04:14.541Z,4.90
2019-02-19T00:06:43.580Z,4.80
2019-02-19T00:11:41.228Z,4.50
2019-02-19T00:14:10.296Z,4.30
2019-02-19T00:16:39.330Z,4.50
2019-02-19T00:19:08.260Z,4.40
2019-02-19T00:21:37.345Z,4.30
2019-02-19T00:24:06.398Z,4.40
2019-02-19T00:26:35.421Z,4.50
2019-02-19T00:29:04.389Z,4.50
2019-02-19T00:31:33.365Z,4.30
2019-02-19T00:34:02.286Z,4.20
2019-02-19T00:36:31.634Z,4.20
2019-02-19T00:39:00.592Z,4.00
2019-02-19T00:41:29.677Z,4.00
2019-02-19T00:43:58.722Z,4.00
2019-02-19T00:48:56.337Z,4.10
2019-02-19T00:51:25.396Z,3.90
2019-02-19T00:53:54.448Z,4.20
2019-02-19T00:56:23.507Z,4.30
2019-02-19T00:58:52.583Z,4.10
2019-02-19T01:01:21.554Z,4.10
2019-02-19T01:03:50.509Z,4.00
2019-02-19T01:06:19.479Z,4.00
2019-02-19T01:11:16.884Z,4.00
2019-02-19T01:13:46.201Z,3.90
2019-02-19T01:16:15.151Z,3.70
2019-02-19T01:18:44.213Z,4.00
2019-02-19T01:21:13.168Z,4.00
2019-02-19T01:23:42.172Z,3.80
2019-02-19T01:26:11.174Z,3.80
2019-02-19T01:28:40.260Z,3.80
2019-02-19T01:31:09.304Z,3.70
2019-02-19T01:33:39.428Z,3.70
2019-02-19T01:36:08.378Z,3.70
2019-02-19T01:38:37.327Z,3.60
2019-02-19T01:41:06.219Z,3.80
2019-02-19T01:43:35.285Z,4.00
2019-02-19T01:46:04.244Z,4.10
2019-02-19T01:48:33.308Z,4.20
2019-02-19T01:51:02.345Z,4.20
2019-02-19T01:56:00.039Z,4.10
2019-02-19T01:58:28.952Z,3.90
2019-02-19T02:00:57.989Z,3.90
2019-02-19T02:03:26.925Z,4.00
2019-02-19T02:05:55.964Z,4.00
2019-02-19T02:10:53.825Z,4.10
2019-02-19T02:13:22.836Z,4.10
2019-02-19T02:15:51.820Z,4.00
2019-02-19T02:18:20.868Z,3.80
2019-02-19T02:20:49.892Z,3.80
2019-02-19T02:23:18.969Z,3.70
2019-02-19T02:25:47.772Z,3.60
2019-02-19T02:28:16.803Z,3.60
2019-02-19T02:30:45.777Z,3.70
2019-02-19T02:33:14.761Z,3.60
2019-02-19T02:35:44.049Z,3.50
2019-02-19T02:38:13.090Z,3.50
2019-02-19T02:40:42.101Z,3.40
2019-02-19T02:43:10.990Z,3.30
2019-02-19T02:45:40.011Z,3.20
2019-02-19T02:50:37.509Z,3.20
2019-02-19T02:53:06.520Z,3.10
2019-02-19T02:55:35.447Z,3.10
2019-02-19T02:58:04.432Z,3.20
2019-02-19T03:00:33.437Z,3.10
2019-02-19T03:03:02.320Z,3.10
2019-02-19T03:05:31.357Z,3.10
2019-02-19T03:08:03.745Z,3.10
2019-02-19T03:10:32.756Z,3.10
2019-02-19T03:15:30.257Z,2.90
2019-02-19T03:17:59.200Z,3.00
2019-02-19T03:20:28.076Z,3.10
2019-02-19T03:27:54.156Z,2.90
2019-02-19T03:30:23.791Z,3.00
2019-02-19T03:32:52.761Z,2.90
2019-02-19T03:35:21.720Z,3.00
2019-02-19T03:37:50.794Z,3.10
2019-02-19T03:40:19.801Z,3.80
2019-02-19T03:42:48.829Z,5.20
2019-02-19T03:45:17.721Z,5.80
2019-02-19T03:47:46.960Z,5.80
2019-02-19T03:50:15.854Z,6.10
2019-02-19T03:52:44.804Z,6.20
2019-02-19T03:55:13.798Z,6.10
2019-02-19T03:57:42.663Z,6.00
2019-02-19T04:00:11.570Z,5.90
2019-02-19T04:02:40.528Z,5.50
2019-02-19T04:05:09.589Z,5.80
2019-02-19T04:07:38.561Z,6.10
2019-02-19T04:10:07.776Z,6.10
2019-02-19T04:12:36.729Z,6.10
2019-02-19T04:15:06.074Z,5.30
2019-02-19T04:17:35.106Z,5.20
2019-02-19T04:20:05.221Z,3.90
2019-02-19T04:22:34.235Z,3.60
2019-02-19T04:25:03.252Z,3.50
2019-02-19T04:27:32.181Z,3.50
2019-02-19T04:30:01.284Z,3.40
2019-02-19T04:32:30.164Z,3.50
2019-02-19T04:34:59.053Z,3.70
2019-02-19T04:37:29.884Z,4.30
2019-02-19T04:39:58.870Z,4.40
2019-02-19T04:42:27.826Z,5.20
2019-02-19T04:44:56.808Z,4.90
2019-02-19T04:47:25.697Z,4.30
2019-02-19T04:49:54.744Z,3.90
2019-02-19T04:52:23.697Z,3.60
2019-02-19T04:54:52.717Z,3.30
2019-02-19T04:57:21.872Z,3.30
2019-02-19T04:59:50.866Z,3.20
2019-02-19T05:02:19.939Z,3.20
2019-02-19T05:04:48.988Z,3.20
2019-02-19T05:09:46.527Z,3.10
2019-02-19T05:12:15.418Z,3.10
2019-02-19T05:14:44.376Z,3.10
2019-02-19T05:17:13.428Z,3.20
2019-02-19T05:19:42.677Z,3.10
2019-02-19T05:22:11.716Z,3.20
2019-02-19T05:24:41.029Z,3.10
2019-02-19T05:27:09.924Z,3.00
2019-02-19T05:29:40.041Z,3.00
2019-02-19T05:32:08.946Z,3.10
2019-02-19T05:34:38.026Z,3.20
2019-02-19T05:37:06.990Z,3.20
2019-02-19T05:39:36.038Z,3.10
2019-02-19T05:42:05.004Z,3.10
2019-02-19T05:44:34.046Z,3.30
2019-02-19T05:47:03.019Z,3.40
2019-02-19T05:49:31.932Z,3.40
2019-02-19T05:52:00.907Z,3.40
2019-02-19T05:54:29.777Z,3.50
2019-02-19T05:56:58.786Z,3.40
2019-02-19T05:59:27.759Z,3.30
2019-02-19T06:01:56.808Z,3.20
2019-02-19T06:04:25.853Z,3.30
2019-02-19T06:06:54.843Z,3.30
2019-02-19T06:09:23.837Z,3.30
2019-02-19T06:11:52.929Z,3.30
2019-02-19T06:14:21.894Z,3.50
2019-02-19T06:16:58.244Z,5.00
2019-02-19T06:19:21.598Z,5.50
2019-02-19T06:21:50.536Z,5.00
2019-02-19T06:24:19.541Z,5.20
2019-02-19T06:26:48.529Z,5.70
2019-02-19T06:29:17.337Z,6.40
2019-02-19T06:31:46.567Z,6.90
2019-02-19T06:34:15.721Z,7.20
2019-02-19T06:39:13.421Z,7.40
2019-02-19T06:41:42.352Z,7.40
2019-02-19T06:44:11.737Z,7.40
2019-02-19T06:46:40.693Z,7.40
2019-02-19T06:49:09.628Z,7.20
2019-02-19T06:51:38.616Z,6.40
2019-02-19T06:54:07.641Z,6.10
2019-02-19T06:56:36.675Z,5.90
2019-02-19T07:01:56.348Z,6.20
2019-02-19T07:04:29.227Z,6.20
2019-02-19T07:06:58.330Z,6.90
2019-02-19T07:09:27.328Z,6.40
2019-02-19T07:11:56.410Z,6.50
2019-02-19T07:14:25.441Z,6.20
2019-02-19T07:16:54.528Z,6.50
2019-02-19T07:19:23.505Z,6.90
2019-02-19T07:21:52.386Z,7.40
2019-02-19T07:24:21.329Z,7.50
2019-02-19T07:26:50.320Z,7.40
2019-02-19T07:29:19.249Z,7.40
2019-02-19T07:31:48.336Z,7.40
2019-02-19T07:34:17.375Z,7.00
2019-02-19T07:36:46.461Z,7.00
2019-02-19T07:39:15.453Z,6.20
2019-02-19T07:41:44.317Z,6.10
2019-02-19T07:44:14.260Z,5.70
2019-02-19T07:46:43.273Z,5.70
2019-02-19T07:49:12.238Z,5.80
2019-02-19T07:51:42.684Z,5.80
2019-02-19T07:54:12.104Z,6.00
2019-02-19T07:56:41.124Z,6.00
2019-02-19T07:59:10.323Z,6.30
2019-02-19T08:01:39.304Z,6.30
2019-02-19T08:04:08.268Z,6.30
2019-02-19T08:09:07.058Z,7.30
2019-02-19T08:11:36.060Z,7.60
2019-02-19T08:14:05.036Z,7.60
2019-02-19T08:16:33.996Z,7.70
2019-02-19T08:19:02.971Z,8.00
2019-02-19T08:21:31.984Z,8.10
2019-02-19T08:24:00.981Z,8.00
2019-02-19T08:26:29.958Z,7.90
2019-02-19T08:29:11.337Z,7.70
2019-02-19T08:31:29.830Z,8.00
2019-02-19T08:33:58.828Z,8.20
2019-02-19T08:36:29.595Z,8.20
2019-02-19T08:38:58.433Z,8.30
2019-02-19T08:41:27.402Z,8.20
2019-02-19T08:43:56.416Z,8.00
2019-02-19T08:46:25.380Z,7.90
2019-02-19T08:48:54.335Z,7.80
2019-02-19T08:51:24.262Z,7.80
2019-02-19T08:53:53.392Z,7.90
2019-02-19T08:56:22.444Z,8.00
2019-02-19T09:01:19.862Z,9.20
2019-02-19T09:03:49.324Z,9.10
2019-02-19T09:11:15.361Z,8.60
2019-02-19T09:13:44.313Z,8.60
2019-02-19T09:16:13.368Z,8.50
2019-02-19T09:18:42.429Z,8.60
2019-02-19T09:21:11.372Z,8.50
2019-02-19T09:23:42.246Z,8.40
2019-02-19T09:26:11.140Z,8.50
2019-02-19T09:28:41.776Z,8.70
2019-02-19T09:31:10.809Z,8.70
2019-02-19T09:33:39.799Z,8.80
2019-02-19T09:36:08.829Z,8.70
2019-02-19T09:41:06.285Z,8.60
2019-02-19T09:43:35.779Z,8.70
2019-02-19T09:46:05.012Z,9.20
2019-02-19T09:48:34.104Z,9.10
2019-02-19T09:53:31.670Z,10.80
2019-02-19T09:56:00.772Z,10.90
2019-02-19T09:58:36.080Z,10.70
2019-02-19T10:01:05.289Z,10.90
2019-02-19T10:03:39.597Z,10.20
2019-02-19T10:06:08.863Z,9.80
2019-02-19T10:08:37.873Z,9.80
2019-02-19T10:11:06.944Z,9.90
2019-02-19T10:13:35.988Z,9.70
2019-02-19T10:16:05.067Z,9.80
2019-02-19T10:18:34.036Z,9.90
2019-02-19T10:21:02.925Z,10.00
2019-02-19T10:23:31.992Z,10.30
2019-02-19T10:26:01.068Z,11.20
2019-02-19T10:28:29.997Z,11.10
2019-02-19T10:30:58.964Z,10.80
2019-02-19T10:33:27.941Z,10.80
2019-02-19T10:35:56.872Z,11.70
2019-02-19T10:38:25.877Z,12.00
2019-02-19T10:40:54.900Z,12.20
2019-02-19T10:43:24.015Z,11.80
2019-02-19T10:45:52.932Z,11.90
2019-02-19T10:48:21.964Z,12.70
2019-02-19T10:50:51.100Z,13.30
2019-02-19T10:53:20.134Z,13.30
2019-02-19T10:55:49.224Z,14.90
2019-02-19T10:58:22.905Z,16.10
2019-02-19T11:00:48.926Z,16.10
2019-02-19T11:03:17.895Z,16.60
2019-02-19T11:05:46.976Z,16.80
2019-02-19T11:08:16.080Z,16.70
2019-02-19T11:10:45.349Z,16.00
2019-02-19T11:13:14.396Z,15.40
2019-02-19T11:15:43.482Z,12.80
2019-02-19T11:18:12.497Z,12.00
2019-02-19T11:20:41.568Z,12.00
2019-02-19T11:23:10.532Z,12.20
2019-02-19T11:25:39.516Z,12.10
2019-02-19T11:28:08.530Z,12.00
2019-02-19T11:30:37.578Z,12.00
2019-02-19T11:33:06.497Z,11.90
2019-02-19T11:35:35.637Z,11.80
2019-02-19T11:38:04.618Z,12.20
2019-02-19T11:40:33.669Z,12.30
2019-02-19T11:43:02.893Z,12.20
2019-02-19T11:45:31.937Z,12.00
2019-02-19T11:48:01.392Z,11.80
2019-02-19T11:50:30.348Z,11.80
2019-02-19T11:52:59.464Z,11.70
2019-02-19T11:55:28.470Z,11.60
2019-02-19T11:57:57.462Z,11.20
2019-02-19T12:00:33.140Z,11.20
2019-02-19T12:03:02.091Z,11.10
2019-02-19T12:05:31.114Z,11.20
2019-02-19T12:10:28.692Z,11.20
2019-02-19T12:12:57.729Z,11.10
2019-02-19T12:15:34.668Z,11.00
2019-02-19T12:17:57.318Z,11.00
2019-02-19T12:20:26.468Z,11.00
2019-02-19T12:22:55.537Z,10.90
2019-02-19T12:25:24.552Z,11.00
2019-02-19T12:27:53.584Z,11.00
2019-02-19T12:30:22.713Z,11.10
2019-02-19T12:32:53.191Z,11.10
2019-02-19T12:35:22.161Z,11.10
2019-02-19T12:37:51.360Z,11.10
2019-02-19T12:40:20.369Z,11.30
2019-02-19T12:42:49.328Z,11.40
2019-02-19T12:45:18.356Z,11.40
2019-02-19T12:47:47.332Z,11.30
2019-02-19T12:50:16.459Z,11.30
2019-02-19T12:52:45.476Z,11.20
2019-02-19T12:55:14.742Z,11.20
2019-02-19T12:57:45.306Z,11.00
2019-02-19T13:00:15.061Z,10.90
2019-02-19T13:02:44.288Z,10.90
2019-02-19T13:05:13.780Z,10.90
2019-02-19T13:07:42.730Z,10.90
2019-02-19T13:10:11.745Z,10.80
2019-02-19T13:12:40.744Z,10.80
2019-02-19T13:15:11.871Z,10.70
2019-02-19T13:17:40.896Z,10.70
2019-02-19T13:20:11.666Z,10.40
2019-02-19T13:22:41.268Z,10.30
2019-02-19T13:25:10.584Z,10.20
2019-02-19T13:27:39.519Z,10.10
2019-02-19T13:30:11.054Z,10.10
2019-02-19T13:32:40.014Z,10.40
2019-02-19T13:35:09.759Z,10.30
2019-02-19T13:37:38.719Z,10.20
2019-02-19T13:40:10.233Z,10.20
2019-02-19T13:42:39.261Z,10.20
2019-02-19T13:45:09.700Z,10.20
2019-02-19T13:47:38.744Z,10.20
2019-02-19T13:50:11.261Z,10.30
2019-02-19T13:52:58.341Z,10.20
2019-02-19T13:55:31.062Z,10.10
2019-02-19T13:58:00.019Z,10.10
2019-02-19T14:00:29.947Z,9.90
2019-02-19T14:02:59.292Z,9.90
2019-02-19T14:05:28.678Z,9.80
2019-02-19T14:07:57.579Z,9.80
2019-02-19T14:10:26.571Z,9.80
2019-02-19T14:12:55.626Z,9.80
2019-02-19T14:15:46.477Z,9.80
2019-02-19T14:18:19.478Z,9.90
2019-02-19T14:21:02.573Z,9.90
2019-02-19T14:23:53.340Z,9.90
2019-02-19T14:26:56.561Z,10.20
2019-02-19T14:29:43.395Z,10.20
2019-02-19T14:32:32.429Z,10.40
2019-02-19T14:35:15.961Z,10.30
2019-02-19T14:38:15.951Z,10.40
2019-02-19T14:41:13.088Z,10.40
2019-02-19T14:44:04.343Z,10.40
2019-02-19T14:49:51.685Z,10.40
2019-02-19T14:52:45.781Z,10.40
2019-02-19T14:55:33.504Z,10.60
2019-02-19T14:58:33.360Z,10.60
2019-02-19T15:01:20.127Z,10.70
2019-02-19T15:03:59.316Z,10.70
2019-02-19T15:06:50.142Z,10.60
2019-02-19T15:09:34.490Z,10.60
2019-02-19T15:12:28.617Z,10.60
2019-02-19T15:15:16.240Z,10.50
2019-02-19T15:18:03.421Z,10.50
2019-02-19T15:20:48.856Z,10.40
2019-02-19T15:23:35.369Z,10.50
2019-02-19T15:26:32.573Z,10.60
2019-02-19T15:29:10.212Z,10.70
2019-02-19T15:31:52.260Z,10.50
2019-02-19T15:34:34.829Z,10.30
2019-02-19T15:37:31.782Z,10.30
2019-02-19T15:40:18.720Z,10.30
2019-02-19T15:43:25.204Z,10.40
2019-02-19T15:46:12.124Z,10.30
2019-02-19T15:49:00.192Z,10.30
2019-02-19T15:51:48.197Z,10.20
2019-02-19T15:54:34.746Z,10.20
2019-02-19T16:00:16.843Z,10.10
2019-02-19T16:03:00.132Z,10.00
2019-02-19T16:05:53.264Z,10.00
2019-02-19T16:11:26.925Z,9.90
2019-02-19T16:14:16.626Z,9.70
2019-02-19T16:17:09.768Z,9.70
2019-02-19T16:20:03.357Z,9.60
2019-02-19T16:25:52.901Z,9.60
2019-02-19T16:28:40.049Z,9.60
2019-02-19T16:31:16.051Z,9.50
2019-02-19T16:34:07.142Z,9.50
2019-02-19T16:36:44.229Z,9.40
2019-02-19T16:39:31.310Z,9.40
2019-02-19T16:42:07.688Z,9.40
2019-02-19T16:44:49.085Z,9.40
2019-02-19T16:47:30.248Z,9.40
2019-02-19T16:50:21.156Z,9.40
2019-02-19T16:53:18.287Z,9.40
2019-02-19T16:55:55.065Z,9.30
2019-02-19T16:58:35.802Z,9.30
2019-02-19T17:01:27.289Z,9.30
2019-02-19T17:04:06.217Z,9.30
2019-02-19T17:06:42.429Z,9.30
2019-02-19T17:09:22.550Z,9.30
2019-02-19T17:11:59.982Z,9.30
2019-02-19T17:14:48.007Z,9.30
2019-02-19T17:17:34.889Z,9.30
2019-02-19T17:20:29.249Z,9.30
2019-02-19T17:23:05.835Z,9.30
2019-02-19T17:25:52.997Z,9.20
2019-02-19T17:28:53.285Z,9.20
2019-02-19T17:31:41.343Z,9.20
2019-02-19T17:34:20.656Z,9.20
2019-02-19T17:37:20.750Z,9.20
2019-02-19T17:40:02.570Z,9.20
2019-02-19T17:42:53.720Z,9.20
2019-02-19T17:45:30.384Z,9.30
2019-02-19T17:48:27.422Z,9.60
2019-02-19T17:51:21.691Z,9.20
2019-02-19T17:54:00.212Z,9.10
2019-02-19T17:56:47.002Z,9.10
2019-02-19T17:59:31.664Z,9.10
2019-02-19T18:02:11.456Z,9.20
2019-02-19T18:04:46.956Z,9.10
2019-02-19T18:07:38.112Z,9.00
2019-02-19T18:10:28.564Z,8.90
2019-02-19T18:13:16.737Z,8.90
2019-02-19T18:15:59.437Z,8.80
2019-02-19T18:18:35.422Z,8.70
2019-02-19T18:21:04.487Z,8.70
2019-02-19T18:23:33.557Z,8.60
2019-02-19T18:26:02.641Z,8.60
2019-02-19T18:28:32.356Z,8.60
2019-02-19T18:31:01.348Z,8.50
2019-02-19T18:33:30.429Z,8.60
2019-02-19T18:35:59.434Z,8.50
2019-02-19T18:38:28.544Z,8.40
2019-02-19T18:40:57.490Z,8.30
2019-02-19T18:43:26.496Z,8.20
2019-02-19T18:45:55.569Z,8.20
2019-02-19T18:48:24.558Z,8.00
2019-02-19T18:50:58.450Z,8.00
2019-02-19T18:53:24.425Z,8.00
2019-02-19T18:55:53.502Z,8.00
2019-02-19T18:58:22.621Z,8.00
2019-02-19T19:00:51.617Z,7.90
2019-02-19T19:03:20.643Z,8.00
2019-02-19T19:05:49.787Z,7.90
2019-02-19T19:08:18.899Z,7.80
2019-02-19T19:10:47.902Z,7.90
2019-02-19T19:15:45.789Z,8.20
2019-02-19T19:18:14.791Z,8.00
2019-02-19T19:20:43.873Z,7.90
2019-02-19T19:23:12.860Z,7.90
2019-02-19T19:25:42.922Z,7.80
2019-02-19T19:28:12.103Z,8.00
2019-02-19T19:30:41.232Z,8.20
2019-02-19T19:33:10.358Z,8.20
2019-02-19T19:35:39.466Z,8.10
2019-02-19T19:38:08.494Z,8.10
2019-02-19T19:40:37.609Z,8.00
2019-02-19T19:43:06.764Z,7.80
2019-02-19T19:45:36.068Z,7.80
2019-02-19T19:48:05.303Z,7.90
2019-02-19T19:50:34.365Z,7.90
2019-02-19T19:53:03.529Z,7.70
2019-02-19T19:55:32.564Z,7.70
2019-02-19T19:58:01.612Z,7.60
2019-02-19T20:00:30.794Z,7.60
2019-02-19T20:03:00.010Z,7.60
2019-02-19T20:05:29.076Z,7.50
2019-02-19T20:07:58.140Z,7.50
2019-02-19T20:10:27.454Z,7.50
2019-02-19T20:12:56.457Z,7.40
2019-02-19T20:15:25.729Z,7.30
2019-02-19T20:17:54.904Z,7.20
2019-02-19T20:20:23.918Z,7.20
2019-02-19T20:22:52.982Z,7.20
2019-02-19T20:25:22.088Z,7.30
2019-02-19T20:27:52.105Z,7.30
2019-02-19T20:30:21.161Z,7.30
2019-02-19T20:32:50.222Z,7.30
2019-02-19T20:35:19.409Z,7.30
2019-02-19T20:37:54.026Z,7.30
2019-02-19T20:40:19.253Z,7.00
2019-02-19T20:42:48.343Z,6.70
2019-02-19T20:45:17.608Z,6.60
2019-02-19T20:47:46.707Z,6.80
2019-02-19T20:50:15.824Z,6.80
2019-02-19T20:52:44.921Z,6.90
2019-02-19T20:55:13.999Z,6.70
2019-02-19T20:57:44.998Z,6.70
2019-02-19T21:00:15.521Z,6.70
2019-02-19T21:02:45.548Z,6.60
2019-02-19T21:05:14.597Z,6.80
2019-02-19T21:07:43.594Z,6.80
2019-02-19T21:10:14.471Z,6.90
2019-02-19T21:12:43.572Z,6.80
2019-02-19T21:15:13.817Z,6.80
2019-02-19T21:17:44.418Z,6.80
2019-02-19T21:20:15.001Z,6.70
2019-02-19T21:25:12.783Z,6.70
2019-02-19T21:27:41.938Z,6.70
2019-02-19T21:30:11.608Z,6.60
2019-02-19T21:32:40.699Z,6.60
2019-02-19T21:35:09.933Z,6.30
2019-02-19T21:37:39.188Z,6.20
2019-02-19T21:40:09.768Z,6.20
2019-02-19T21:42:38.841Z,6.00
2019-02-19T21:45:08.380Z,6.00
2019-02-19T21:47:37.582Z,6.20
2019-02-19T21:50:06.753Z,6.10
2019-02-19T21:52:35.791Z,6.20
2019-02-19T21:55:04.877Z,6.00
2019-02-19T21:57:33.945Z,5.80
2019-02-19T22:00:02.957Z,5.80
2019-02-19T22:02:31.958Z,5.60
2019-02-19T22:05:01.117Z,5.40
2019-02-19T22:07:30.365Z,5.40
2019-02-19T22:09:59.371Z,5.40
2019-02-19T22:14:57.005Z,5.20
2019-02-19T22:17:25.980Z,5.30
2019-02-19T22:20:02.859Z,5.20
2019-02-19T22:22:27.997Z,5.10
2019-02-19T22:24:57.137Z,5.10
2019-02-19T22:27:26.123Z,5.10
2019-02-19T22:29:55.195Z,5.20
2019-02-19T22:32:24.556Z,5.20
2019-02-19T22:34:53.607Z,5.20
2019-02-19T22:37:22.610Z,5.20
2019-02-19T22:39:51.722Z,5.30
2019-02-19T22:42:20.887Z,5.10
2019-02-19T22:44:49.934Z,5.10
2019-02-19T22:47:19.007Z,5.10
2019-02-19T22:49:48.007Z,5.30
2019-02-19T22:52:17.157Z,5.30
2019-02-19T22:55:04.282Z,5.00
2019-02-19T22:57:33.788Z,5.00
2019-02-19T23:00:04.400Z,4.90
2019-02-19T23:02:33.625Z,4.90
2019-02-19T23:05:02.723Z,4.80
2019-02-19T23:07:31.688Z,4.80
2019-02-19T23:10:00.733Z,4.80
2019-02-19T23:12:29.832Z,4.90
2019-02-19T23:14:58.943Z,5.20
2019-02-19T23:17:27.993Z,5.30
2019-02-19T23:19:57.215Z,5.40
2019-02-19T23:22:26.217Z,5.50
2019-02-19T23:24:55.268Z,5.50
2019-02-19T23:27:24.300Z,5.50
2019-02-19T23:29:53.303Z,5.50
2019-02-19T23:32:22.356Z,5.60
2019-02-19T23:35:10.442Z,5.60
2019-02-19T23:37:39.655Z,5.60
2019-02-19T23:40:08.676Z,5.40
2019-02-19T23:42:38.093Z,5.30
2019-02-19T23:45:07.212Z,5.30
2019-02-19T23:47:36.277Z,5.20
2019-02-19T23:50:05.368Z,5.20
2019-02-19T23:52:34.452Z,5.20
2019-02-19T23:55:03.406Z,5.30
